Terminal Aerodrome Forecast
Issued by NWS Corpus Christi, TX

Home | Current Version | Previous Version | Text Only | Print | Product List | Glossary On
Versions: 1 2 3 4 5 6 7 8 9 10 11 12 13 14 15
000
FTUS44 KCRP 312300
TAFVCT
TAF
KVCT 312325Z 0100/0124 15014G18KT P6SM VCTS BKN050CB OVC150
     FM010300 17004KT P6SM BKN020 OVC100
     FM010900 VRB03KT P6SM VCSH OVC020 PROB30 0114/0118 3SM TSRA
      OVC015CB=

USA.gov is the U.S. government's official web portal to all federal, state and local government web resources and services.